Time;durP1;ratioP1;P1;durP2;ratioP2;P2;SDS_P1;SDS_P2;PMS_P1;PMS_P2;Temp;Humidity;BMP_temperature;BMP_pressure;BME280_temperature;BME280_humidity;BME280_pressure;Samples;Min_cycle;Max_cycle;Signal;HPM_P1;HPM_P2
2021/08/22 00:02:03;;;;;;;29.23;20.60;;;;;;;;;;761315;178;911653;-69
2021/08/22 00:04:29;;;;;;;25.62;19.10;;;;;;;;;;753517;184;912002;-70
2021/08/22 00:06:55;;;;;;;31.70;21.47;;;;;;;;;;754293;184;911610;-68
2021/08/22 00:09:21;;;;;;;29.58;22.10;;;;;;;;;;759910;182;919442;-68
2021/08/22 00:11:47;;;;;;;30.63;25.20;;;;;;;;;;754389;181;916683;-68
2021/08/22 00:14:13;;;;;;;46.03;25.50;;;;;;;;;;754489;184;1020731;-70
2021/08/22 00:16:38;;;;;;;33.10;23.77;;;;;;;;;;758893;184;918637;-71
2021/08/22 00:19:04;;;;;;;30.63;23.40;;;;;;;;;;755881;183;918662;-69
2021/08/22 00:21:30;;;;;;;33.97;22.85;;;;;;;;;;753569;184;918815;-70
2021/08/22 00:23:56;;;;;;;28.60;22.23;;;;;;;;;;759832;182;918950;-69
2021/08/22 00:26:22;;;;;;;33.60;21.93;;;;;;;;;;751224;180;1769870;-69
2021/08/22 00:28:48;;;;;;;27.37;20.87;;;;;;;;;;754543;182;919240;-68
2021/08/22 00:31:13;;;;;;;24.63;21.17;;;;;;;;;;754872;183;921787;-68
2021/08/22 00:33:39;;;;;;;37.33;20.83;;;;;;;;;;761445;183;918560;-68
2021/08/22 00:36:05;;;;;;;27.40;20.53;;;;;;;;;;757185;183;918786;-69
2021/08/22 00:38:33;;;;;;;27.73;21.17;;;;;;;;;;758855;183;919395;-68
2021/08/22 00:40:57;;;;;;;25.43;20.27;;;;;;;;;;760078;183;918337;-68
2021/08/22 00:43:23;;;;;;;22.53;18.77;;;;;;;;;;754841;184;918176;-68
2021/08/22 00:45:48;;;;;;;25.10;18.33;;;;;;;;;;754358;184;918511;-68
2021/08/22 00:48:14;;;;;;;25.80;19.07;;;;;;;;;;759950;182;919182;-68
2021/08/22 00:50:40;;;;;;;22.70;19.23;;;;;;;;;;757051;182;919632;-68
2021/08/22 00:53:06;;;;;;;22.47;18.13;;;;;;;;;;754906;183;918370;-68
2021/08/22 00:55:32;;;;;;;22.90;19.50;;;;;;;;;;754168;184;919643;-68
2021/08/22 00:57:58;;;;;;;23.10;18.10;;;;;;;;;;753845;183;919626;-68
2021/08/22 01:00:24;;;;;;;19.43;16.90;;;;;;;;;;752569;184;918212;-68
2021/08/22 01:03:07;;;;;;;18.70;16.50;;;;;;;;;;753113;184;919012;-68
2021/08/22 01:05:33;;;;;;;24.00;16.97;;;;;;;;;;749530;182;918984;-67
2021/08/22 01:08:02;;;;;;;21.40;17.27;;;;;;;;;;758280;185;918500;-68
2021/08/22 01:10:28;;;;;;;18.33;14.80;;;;;;;;;;752387;184;919267;-68
2021/08/22 01:13:08;;;;;;;18.60;15.80;;;;;;;;;;752896;182;918616;-69
2021/08/22 01:15:34;;;;;;;22.98;15.85;;;;;;;;;;753723;184;918848;-69
2021/08/22 01:18:01;;;;;;;18.30;14.90;;;;;;;;;;759021;182;918987;-69
2021/08/22 01:20:33;;;;;;;18.77;14.90;;;;;;;;;;756508;184;919206;-68
2021/08/22 01:22:58;;;;;;;17.73;14.07;;;;;;;;;;754113;182;918535;-68
2021/08/22 01:25:23;;;;;;;16.93;14.00;;;;;;;;;;754003;184;920345;-68
2021/08/22 01:27:49;;;;;;;17.70;14.20;;;;;;;;;;760554;181;919509;-68
2021/08/22 01:30:15;;;;;;;16.10;14.00;;;;;;;;;;756044;184;919599;-68
2021/08/22 01:32:41;;;;;;;16.05;13.52;;;;;;;;;;753295;184;918797;-68
2021/08/22 01:35:08;;;;;;;17.40;13.63;;;;;;;;;;759183;182;918970;-69
2021/08/22 01:37:33;;;;;;;19.20;13.47;;;;;;;;;;758185;183;919996;-68
2021/08/22 01:39:59;;;;;;;18.40;15.53;;;;;;;;;;753763;183;918375;-67
2021/08/22 01:42:25;;;;;;;16.23;12.85;;;;;;;;;;755301;184;919199;-69
2021/08/22 01:44:51;;;;;;;20.77;13.40;;;;;;;;;;755922;183;920018;-68
2021/08/22 01:47:17;;;;;;;17.15;13.85;;;;;;;;;;753456;184;919705;-68
2021/08/22 01:49:43;;;;;;;17.53;13.67;;;;;;;;;;754318;183;920660;-67
2021/08/22 01:52:08;;;;;;;16.50;14.67;;;;;;;;;;760080;183;942546;-68
2021/08/22 01:54:34;;;;;;;15.97;13.20;;;;;;;;;;754853;184;917783;-68
2021/08/22 01:57:00;;;;;;;17.23;13.67;;;;;;;;;;754180;184;918410;-68
2021/08/22 01:59:26;;;;;;;18.73;13.50;;;;;;;;;;759500;184;918026;-69
2021/08/22 02:01:52;;;;;;;13.70;12.13;;;;;;;;;;753664;181;1021283;-68
2021/08/22 02:04:19;;;;;;;14.10;12.60;;;;;;;;;;755152;183;919355;-68
2021/08/22 02:06:47;;;;;;;14.00;12.37;;;;;;;;;;754267;183;918910;-68
2021/08/22 02:09:13;;;;;;;18.07;12.93;;;;;;;;;;755037;183;919417;-68
2021/08/22 02:11:39;;;;;;;23.17;13.67;;;;;;;;;;753552;184;918656;-68
2021/08/22 02:14:05;;;;;;;14.57;12.97;;;;;;;;;;755586;182;918813;-68
2021/08/22 02:16:30;;;;;;;17.10;12.17;;;;;;;;;;759113;184;918446;-68
2021/08/22 02:18:56;;;;;;;14.20;12.37;;;;;;;;;;755309;184;918936;-68
2021/08/22 02:21:22;;;;;;;15.53;13.40;;;;;;;;;;753747;184;919337;-68
2021/08/22 02:23:49;;;;;;;15.90;13.27;;;;;;;;;;759583;184;919405;-68
2021/08/22 02:26:14;;;;;;;13.80;11.87;;;;;;;;;;755542;184;918763;-68
2021/08/22 02:28:40;;;;;;;13.03;11.57;;;;;;;;;;754315;184;924358;-68
2021/08/22 02:31:06;;;;;;;16.67;12.10;;;;;;;;;;755337;184;918800;-67
2021/08/22 02:33:32;;;;;;;14.17;12.17;;;;;;;;;;755760;184;919346;-67
2021/08/22 02:35:58;;;;;;;17.13;11.90;;;;;;;;;;754270;181;919584;-68
2021/08/22 02:38:24;;;;;;;17.93;13.63;;;;;;;;;;753696;184;919178;-68
2021/08/22 02:40:50;;;;;;;16.53;11.13;;;;;;;;;;759683;184;919062;-68
2021/08/22 02:43:15;;;;;;;16.10;12.17;;;;;;;;;;753944;184;918373;-68
2021/08/22 02:45:41;;;;;;;13.23;11.27;;;;;;;;;;753703;184;919558;-68
2021/08/22 02:48:07;;;;;;;12.53;10.67;;;;;;;;;;761721;183;919651;-69
2021/08/22 02:50:33;;;;;;;14.20;10.23;;;;;;;;;;756309;184;918890;-68
2021/08/22 02:52:59;;;;;;;11.30;10.10;;;;;;;;;;757020;183;918918;-68
2021/08/22 02:55:25;;;;;;;12.48;9.90;;;;;;;;;;758652;183;918706;-67
2021/08/22 02:57:51;;;;;;;13.07;9.20;;;;;;;;;;754305;184;918649;-68
2021/08/22 03:00:18;;;;;;;10.50;9.30;;;;;;;;;;754515;184;920945;-69
2021/08/22 03:02:43;;;;;;;14.37;9.50;;;;;;;;;;754431;183;919403;-68
2021/08/22 03:05:09;;;;;;;10.33;9.23;;;;;;;;;;761018;183;919062;-67
2021/08/22 03:07:35;;;;;;;12.53;8.93;;;;;;;;;;754011;183;932754;-68
2021/08/22 03:10:01;;;;;;;13.23;9.27;;;;;;;;;;756026;184;918584;-69
2021/08/22 03:12:27;;;;;;;14.37;9.40;;;;;;;;;;759480;183;918875;-67
2021/08/22 03:14:53;;;;;;;11.47;8.43;;;;;;;;;;755600;183;919559;-68
2021/08/22 03:17:19;;;;;;;14.40;8.37;;;;;;;;;;755147;183;921407;-68
2021/08/22 03:19:44;;;;;;;13.77;8.77;;;;;;;;;;759948;184;917872;-68
2021/08/22 03:22:10;;;;;;;14.43;8.87;;;;;;;;;;754539;181;918493;-68
2021/08/22 03:24:36;;;;;;;11.20;8.90;;;;;;;;;;753216;184;919134;-68
2021/08/22 03:27:02;;;;;;;14.40;10.50;;;;;;;;;;755529;184;916760;-68
2021/08/22 03:29:28;;;;;;;10.97;8.80;;;;;;;;;;759701;184;917560;-68
2021/08/22 03:31:54;;;;;;;16.20;8.70;;;;;;;;;;753246;184;919068;-68
2021/08/22 03:34:19;;;;;;;14.07;9.80;;;;;;;;;;753622;184;918982;-68
2021/08/22 03:36:45;;;;;;;9.33;8.20;;;;;;;;;;758635;184;918731;-69
2021/08/22 03:39:11;;;;;;;11.97;7.80;;;;;;;;;;755302;184;918915;-68
2021/08/22 03:41:37;;;;;;;10.07;8.05;;;;;;;;;;754520;184;919131;-67
2021/08/22 03:44:04;;;;;;;12.27;8.40;;;;;;;;;;758500;184;919076;-67
2021/08/22 03:46:29;;;;;;;9.93;7.70;;;;;;;;;;754366;184;918642;-67
2021/08/22 03:48:54;;;;;;;13.13;9.10;;;;;;;;;;752647;184;919294;-68
2021/08/22 03:51:23;;;;;;;11.80;8.27;;;;;;;;;;753080;184;919114;-67
2021/08/22 03:53:46;;;;;;;11.98;8.88;;;;;;;;;;760592;183;919666;-66
2021/08/22 03:56:12;;;;;;;9.40;8.40;;;;;;;;;;753314;184;918701;-66
2021/08/22 03:58:38;;;;;;;9.60;7.82;;;;;;;;;;756217;184;918240;-67
2021/08/22 04:01:04;;;;;;;14.00;10.07;;;;;;;;;;761960;183;920138;-66
2021/08/22 04:03:30;;;;;;;12.43;9.17;;;;;;;;;;756871;183;919799;-66
2021/08/22 04:05:55;;;;;;;8.25;7.28;;;;;;;;;;756225;183;926909;-66
2021/08/22 04:08:24;;;;;;;11.43;8.33;;;;;;;;;;759143;183;918377;-67
2021/08/22 04:10:47;;;;;;;10.57;8.77;;;;;;;;;;754840;184;916367;-66
2021/08/22 04:13:13;;;;;;;10.83;9.63;;;;;;;;;;755567;183;915679;-68
2021/08/22 04:15:39;;;;;;;12.15;8.77;;;;;;;;;;757974;183;925573;-66
2021/08/22 04:18:05;;;;;;;9.40;7.60;;;;;;;;;;754960;183;915365;-67
2021/08/22 04:20:31;;;;;;;14.67;8.60;;;;;;;;;;753719;184;918130;-66
2021/08/22 04:22:57;;;;;;;12.20;8.63;;;;;;;;;;752942;184;918551;-67
2021/08/22 04:25:23;;;;;;;14.30;9.27;;;;;;;;;;761056;183;918061;-66
2021/08/22 04:27:49;;;;;;;11.70;9.13;;;;;;;;;;756219;183;918919;-66
2021/08/22 04:30:14;;;;;;;15.37;11.90;;;;;;;;;;756103;183;919041;-66
2021/08/22 04:32:40;;;;;;;20.60;12.40;;;;;;;;;;759521;183;919370;-65
2021/08/22 04:35:07;;;;;;;20.50;12.70;;;;;;;;;;756132;184;919060;-66
2021/08/22 04:37:32;;;;;;;16.08;13.27;;;;;;;;;;755845;184;918673;-66
2021/08/22 04:39:59;;;;;;;17.37;15.40;;;;;;;;;;759498;184;918305;-66
2021/08/22 04:42:24;;;;;;;23.23;15.33;;;;;;;;;;753617;182;919466;-66
2021/08/22 04:44:50;;;;;;;20.77;14.03;;;;;;;;;;753442;184;947650;-66
2021/08/22 04:47:16;;;;;;;19.50;15.10;;;;;;;;;;753027;184;919662;-67
2021/08/22 04:49:42;;;;;;;24.07;16.67;;;;;;;;;;760490;184;919335;-66
2021/08/22 04:52:08;;;;;;;27.77;18.00;;;;;;;;;;754401;184;1021381;-66
2021/08/22 04:54:33;;;;;;;29.00;18.37;;;;;;;;;;753607;184;935133;-65
2021/08/22 04:56:59;;;;;;;64.10;53.23;;;;;;;;;;760783;183;918124;-65
2021/08/22 04:59:25;;;;;;;47.40;35.07;;;;;;;;;;754859;184;918729;-65
2021/08/22 05:01:51;;;;;;;50.05;42.28;;;;;;;;;;753783;184;919015;-66
2021/08/22 05:04:17;;;;;;;29.73;22.00;;;;;;;;;;756489;181;1329888;-65
2021/08/22 05:06:43;;;;;;;31.33;22.03;;;;;;;;;;753153;184;922083;-67
2021/08/22 05:09:08;;;;;;;31.03;22.20;;;;;;;;;;753182;184;918974;-65
2021/08/22 05:11:34;;;;;;;31.47;20.40;;;;;;;;;;755585;183;917695;-66
2021/08/22 05:14:00;;;;;;;27.80;20.57;;;;;;;;;;756082;183;919386;-66
2021/08/22 05:16:26;;;;;;;27.77;21.10;;;;;;;;;;755059;182;918532;-65
2021/08/22 05:18:52;;;;;;;24.53;19.87;;;;;;;;;;754361;183;919818;-66
2021/08/22 05:21:18;;;;;;;28.03;22.47;;;;;;;;;;761098;183;927511;-66
2021/08/22 05:23:43;;;;;;;25.90;19.23;;;;;;;;;;756022;184;918933;-65
2021/08/22 05:26:09;;;;;;;20.17;16.67;;;;;;;;;;755052;184;1016681;-66
2021/08/22 05:28:35;;;;;;;21.50;17.87;;;;;;;;;;760852;183;921296;-66
2021/08/22 05:31:01;;;;;;;20.97;17.90;;;;;;;;;;755267;183;918580;-66
2021/08/22 05:33:27;;;;;;;22.80;15.97;;;;;;;;;;756233;183;920001;-67
2021/08/22 05:35:53;;;;;;;18.87;16.47;;;;;;;;;;758979;183;918885;-67
2021/08/22 05:38:18;;;;;;;18.50;16.47;;;;;;;;;;754173;183;920685;-67
2021/08/22 05:40:44;;;;;;;16.80;14.40;;;;;;;;;;754853;183;918907;-67
2021/08/22 05:43:10;;;;;;;17.43;14.17;;;;;;;;;;754510;184;919400;-69
2021/08/22 05:45:36;;;;;;;16.57;13.97;;;;;;;;;;760103;183;919203;-67
2021/08/22 05:48:02;;;;;;;14.57;13.03;;;;;;;;;;755971;184;918736;-68
2021/08/22 05:50:28;;;;;;;16.67;14.63;;;;;;;;;;755654;184;919807;-69
2021/08/22 05:52:54;;;;;;;17.70;15.30;;;;;;;;;;759932;181;919082;-68
2021/08/22 05:55:20;;;;;;;16.55;13.57;;;;;;;;;;757737;184;918779;-68
2021/08/22 05:57:45;;;;;;;20.83;13.50;;;;;;;;;;754008;184;917771;-68
2021/08/22 06:00:12;;;;;;;14.70;12.47;;;;;;;;;;758554;184;919049;-68
2021/08/22 06:02:37;;;;;;;15.50;11.40;;;;;;;;;;754600;184;915023;-68
2021/08/22 06:05:03;;;;;;;13.10;11.47;;;;;;;;;;754099;184;918627;-68
2021/08/22 06:07:29;;;;;;;15.20;11.13;;;;;;;;;;753285;184;919442;-68
2021/08/22 06:09:55;;;;;;;14.40;11.70;;;;;;;;;;760169;183;919003;-67
2021/08/22 06:12:21;;;;;;;13.77;11.60;;;;;;;;;;753571;184;918875;-69
2021/08/22 06:14:47;;;;;;;12.37;8.90;;;;;;;;;;753257;184;918571;-69
2021/08/22 06:17:13;;;;;;;12.80;10.80;;;;;;;;;;760822;184;918371;-69
2021/08/22 06:19:39;;;;;;;12.97;10.80;;;;;;;;;;759318;184;631328;-69
2021/08/22 06:22:04;;;;;;;12.43;9.93;;;;;;;;;;754704;184;936816;-69
2021/08/22 06:24:30;;;;;;;13.10;10.37;;;;;;;;;;760854;184;921068;-70
2021/08/22 06:26:56;;;;;;;13.00;9.47;;;;;;;;;;759122;183;917735;-69
2021/08/22 06:29:22;;;;;;;15.30;9.47;;;;;;;;;;756248;182;919746;-68
2021/08/22 06:31:48;;;;;;;13.47;10.57;;;;;;;;;;757137;183;919071;-68
2021/08/22 06:34:14;;;;;;;10.37;9.30;;;;;;;;;;755365;183;919230;-68
2021/08/22 06:36:39;;;;;;;12.07;9.53;;;;;;;;;;753915;184;918954;-68
2021/08/22 06:39:05;;;;;;;10.63;9.53;;;;;;;;;;753617;184;919768;-68
2021/08/22 06:41:31;;;;;;;13.40;10.30;;;;;;;;;;760255;182;912340;-69
2021/08/22 06:43:57;;;;;;;13.33;10.10;;;;;;;;;;755777;183;919204;-69
2021/08/22 06:46:23;;;;;;;12.00;10.20;;;;;;;;;;756301;183;918778;-70
2021/08/22 06:48:49;;;;;;;16.73;9.23;;;;;;;;;;761715;183;917253;-69
2021/08/22 06:51:15;;;;;;;12.80;9.67;;;;;;;;;;753766;182;918642;-69
2021/08/22 06:53:40;;;;;;;12.07;9.37;;;;;;;;;;754683;184;916549;-70
2021/08/22 06:56:06;;;;;;;10.33;8.40;;;;;;;;;;758093;184;916236;-70
2021/08/22 06:58:32;;;;;;;12.23;10.80;;;;;;;;;;751770;184;1152654;-70
2021/08/22 07:00:58;;;;;;;14.23;9.97;;;;;;;;;;753344;182;914419;-69
2021/08/22 07:03:24;;;;;;;10.52;9.43;;;;;;;;;;754620;184;916691;-69
2021/08/22 07:05:50;;;;;;;10.60;9.50;;;;;;;;;;758611;184;916631;-69
2021/08/22 07:08:15;;;;;;;10.03;9.00;;;;;;;;;;755926;181;915627;-70
2021/08/22 07:10:41;;;;;;;12.93;9.03;;;;;;;;;;754621;184;915091;-70
2021/08/22 07:13:07;;;;;;;16.10;9.70;;;;;;;;;;759189;184;915027;-70
2021/08/22 07:15:34;;;;;;;25.47;15.50;;;;;;;;;;756864;184;919944;-70
2021/08/22 07:17:59;;;;;;;21.13;13.87;;;;;;;;;;754017;184;917236;-70
2021/08/22 07:20:25;;;;;;;18.03;11.40;;;;;;;;;;758675;184;915683;-68
2021/08/22 07:22:50;;;;;;;12.00;9.60;;;;;;;;;;753720;184;915899;-71
2021/08/22 07:25:17;;;;;;;10.40;7.87;;;;;;;;;;753369;184;915751;-69
2021/08/22 07:27:42;;;;;;;11.73;8.80;;;;;;;;;;752872;184;916739;-69
2021/08/22 07:30:08;;;;;;;10.20;8.80;;;;;;;;;;754763;184;916698;-70
2021/08/22 07:32:34;;;;;;;11.43;8.40;;;;;;;;;;754003;184;916274;-70
2021/08/22 07:35:00;;;;;;;10.00;8.47;;;;;;;;;;756606;183;917990;-69
2021/08/22 07:37:26;;;;;;;12.37;8.33;;;;;;;;;;761425;180;920655;-70
2021/08/22 07:39:52;;;;;;;9.37;7.97;;;;;;;;;;756795;183;914129;-70
2021/08/22 07:42:17;;;;;;;9.85;8.27;;;;;;;;;;755510;183;914397;-71
2021/08/22 07:44:43;;;;;;;12.23;9.00;;;;;;;;;;760774;183;914158;-70
2021/08/22 07:47:09;;;;;;;9.27;7.97;;;;;;;;;;756862;183;919191;-70
2021/08/22 07:49:35;;;;;;;12.50;8.17;;;;;;;;;;755936;184;919115;-70
2021/08/22 07:52:01;;;;;;;10.05;7.93;;;;;;;;;;756684;183;918739;-70
2021/08/22 07:54:27;;;;;;;11.83;8.13;;;;;;;;;;755845;183;912368;-71
2021/08/22 07:56:53;;;;;;;10.23;8.97;;;;;;;;;;752466;184;919661;-70
2021/08/22 07:59:19;;;;;;;11.17;8.90;;;;;;;;;;754615;183;918889;-71
2021/08/22 08:01:45;;;;;;;9.80;8.80;;;;;;;;;;750565;185;917991;-69
2021/08/22 08:04:10;;;;;;;9.70;8.10;;;;;;;;;;728843;188;919126;-69
2021/08/22 08:06:36;;;;;;;9.60;8.47;;;;;;;;;;727901;191;919548;-73
2021/08/22 08:09:04;;;;;;;12.50;9.50;;;;;;;;;;731635;188;919224;-71
2021/08/22 08:11:28;;;;;;;10.60;8.77;;;;;;;;;;724985;189;924557;-70
2021/08/22 08:13:54;;;;;;;11.30;9.35;;;;;;;;;;734775;186;918276;-71
2021/08/22 08:16:20;;;;;;;11.37;9.30;;;;;;;;;;739267;185;907095;-71
2021/08/22 08:18:45;;;;;;;11.10;9.23;;;;;;;;;;753314;184;920226;-71
2021/08/22 08:21:11;;;;;;;11.83;10.17;;;;;;;;;;752568;184;918720;-71
2021/08/22 08:23:37;;;;;;;11.63;10.53;;;;;;;;;;752546;184;918669;-70
2021/08/22 08:26:03;;;;;;;12.23;10.93;;;;;;;;;;759972;182;919470;-72
2021/08/22 08:28:29;;;;;;;13.80;11.00;;;;;;;;;;754083;182;917922;-72
2021/08/22 08:30:55;;;;;;;11.70;8.97;;;;;;;;;;753358;184;918984;-72
2021/08/22 08:33:21;;;;;;;10.57;9.47;;;;;;;;;;758710;184;918670;-73
2021/08/22 08:35:47;;;;;;;12.73;9.73;;;;;;;;;;755445;184;918285;-71
2021/08/22 08:38:12;;;;;;;11.37;10.03;;;;;;;;;;754693;184;920103;-71
2021/08/22 08:40:40;;;;;;;10.80;8.87;;;;;;;;;;758673;184;918647;-72
2021/08/22 08:43:05;;;;;;;10.87;8.00;;;;;;;;;;754941;184;919467;-72
2021/08/22 08:45:32;;;;;;;11.30;9.63;;;;;;;;;;755457;182;919638;-72
2021/08/22 08:47:58;;;;;;;8.17;5.70;;;;;;;;;;754694;184;918867;-72
2021/08/22 08:50:38;;;;;;;7.90;5.70;;;;;;;;;;760031;184;920443;-73
2021/08/22 08:53:04;;;;;;;6.37;4.87;;;;;;;;;;760059;183;919051;-72
2021/08/22 08:55:34;;;;;;;6.60;5.73;;;;;;;;;;753689;183;919160;-73
2021/08/22 08:58:00;;;;;;;5.40;4.87;;;;;;;;;;756309;183;918680;-74
2021/08/22 09:00:29;;;;;;;6.70;6.00;;;;;;;;;;759849;184;918916;-74
2021/08/22 09:02:56;;;;;;;6.83;5.43;;;;;;;;;;756433;183;918085;-74
2021/08/22 09:05:36;;;;;;;5.37;4.50;;;;;;;;;;756349;182;930181;-73
2021/08/22 09:08:19;;;;;;;4.97;4.23;;;;;;;;;;752001;183;924113;-73
2021/08/22 09:10:51;;;;;;;7.07;4.70;;;;;;;;;;752522;181;918967;-72
2021/08/22 09:13:23;;;;;;;4.73;4.00;;;;;;;;;;755447;181;918112;-74
2021/08/22 09:15:54;;;;;;;7.30;4.17;;;;;;;;;;759332;183;919544;-73
2021/08/22 09:18:26;;;;;;;4.40;3.53;;;;;;;;;;758684;183;919295;-72
2021/08/22 09:20:58;;;;;;;6.13;4.13;;;;;;;;;;755085;181;917940;-73
2021/08/22 09:23:45;;;;;;;5.37;3.85;;;;;;;;;;752781;183;919246;-73
2021/08/22 09:26:31;;;;;;;6.30;4.43;;;;;;;;;;753861;185;915111;-72
2021/08/22 09:29:03;;;;;;;4.10;3.50;;;;;;;;;;754996;181;916838;-72
2021/08/22 09:31:35;;;;;;;4.90;4.17;;;;;;;;;;752889;184;919079;-74
2021/08/22 09:34:07;;;;;;;6.60;3.90;;;;;;;;;;753371;181;943585;-73
2021/08/22 09:36:41;;;;;;;5.93;4.90;;;;;;;;;;755168;183;1636202;-73
2021/08/22 09:39:13;;;;;;;11.80;5.07;;;;;;;;;;760909;184;622748;-73
2021/08/22 09:41:58;;;;;;;7.80;4.60;;;;;;;;;;756649;182;635339;-74
2021/08/22 09:44:37;;;;;;;7.60;4.20;;;;;;;;;;759052;184;623668;-72
2021/08/22 09:47:18;;;;;;;7.47;4.87;;;;;;;;;;757417;184;633547;-74
2021/08/22 09:49:50;;;;;;;7.40;4.50;;;;;;;;;;759316;182;616980;-73
2021/08/22 09:52:18;;;;;;;7.03;4.80;;;;;;;;;;756628;184;631141;-74
2021/08/22 09:54:59;;;;;;;4.83;4.23;;;;;;;;;;756736;182;637171;-73
2021/08/22 09:57:45;;;;;;;5.27;4.27;;;;;;;;;;752113;185;619614;-70
2021/08/22 10:00:14;;;;;;;4.93;4.20;;;;;;;;;;749682;184;919428;-73
2021/08/22 10:02:47;;;;;;;5.50;4.40;;;;;;;;;;762823;182;620147;-75
2021/08/22 10:05:23;;;;;;;4.07;3.67;;;;;;;;;;762307;183;614298;-75
2021/08/22 10:07:54;;;;;;;4.93;3.70;;;;;;;;;;758603;183;629015;-74
2021/08/22 10:10:21;;;;;;;7.90;4.30;;;;;;;;;;759246;183;628711;-73
2021/08/22 10:12:47;;;;;;;7.30;4.27;;;;;;;;;;759449;183;623719;-73
2021/08/22 10:15:13;;;;;;;6.57;4.37;;;;;;;;;;763154;184;620727;-74
2021/08/22 10:17:38;;;;;;;6.33;3.60;;;;;;;;;;760781;182;623978;-73
2021/08/22 10:20:05;;;;;;;7.47;4.40;;;;;;;;;;759863;183;624219;-74
2021/08/22 10:22:33;;;;;;;4.23;3.63;;;;;;;;;;761390;181;918080;-75
2021/08/22 10:25:01;;;;;;;5.80;4.20;;;;;;;;;;758736;183;917227;-74
2021/08/22 10:27:40;;;;;;;4.50;3.93;;;;;;;;;;759139;183;631306;-74
2021/08/22 10:30:06;;;;;;;4.87;3.97;;;;;;;;;;759082;183;626814;-74
2021/08/22 10:32:34;;;;;;;4.10;3.57;;;;;;;;;;758457;182;624301;-73
2021/08/22 10:35:05;;;;;;;4.83;3.53;;;;;;;;;;761681;184;615602;-71
2021/08/22 10:37:31;;;;;;;6.20;4.23;;;;;;;;;;757761;184;640010;-74
2021/08/22 10:39:57;;;;;;;6.90;3.60;;;;;;;;;;757324;183;644140;-75
2021/08/22 10:42:26;;;;;;;6.30;4.20;;;;;;;;;;762009;184;619097;-74
2021/08/22 10:44:49;;;;;;;5.20;4.70;;;;;;;;;;759925;184;618931;-74
2021/08/22 10:47:15;;;;;;;4.87;4.00;;;;;;;;;;759207;184;621008;-74
2021/08/22 10:49:46;;;;;;;10.37;4.47;;;;;;;;;;757129;184;619798;-75
2021/08/22 10:52:19;;;;;;;4.50;3.43;;;;;;;;;;762726;184;620399;-73
2021/08/22 10:54:45;;;;;;;5.40;4.10;;;;;;;;;;757444;184;618595;-73
2021/08/22 10:57:11;;;;;;;6.03;3.83;;;;;;;;;;756283;182;633058;-74
2021/08/22 10:59:36;;;;;;;4.50;3.80;;;;;;;;;;755477;184;637049;-74
2021/08/22 11:02:09;;;;;;;5.83;3.87;;;;;;;;;;760197;184;623598;-74
2021/08/22 11:04:34;;;;;;;8.57;3.73;;;;;;;;;;758893;183;618494;-73
2021/08/22 11:07:02;;;;;;;4.20;3.17;;;;;;;;;;759686;184;630212;-74
2021/08/22 11:09:35;;;;;;;4.93;4.27;;;;;;;;;;758127;181;920439;-74
2021/08/22 11:12:00;;;;;;;6.07;4.10;;;;;;;;;;750530;181;954163;-73
2021/08/22 11:14:25;;;;;;;8.83;4.30;;;;;;;;;;759403;183;919216;-75
2021/08/22 11:16:51;;;;;;;4.57;3.80;;;;;;;;;;758059;183;626019;-74
2021/08/22 11:19:17;;;;;;;5.90;3.30;;;;;;;;;;763798;181;614610;-75
2021/08/22 11:21:44;;;;;;;5.30;4.27;;;;;;;;;;761677;183;639443;-74
2021/08/22 11:24:09;;;;;;;8.90;4.67;;;;;;;;;;759347;183;623172;-74
2021/08/22 11:26:35;;;;;;;5.57;4.27;;;;;;;;;;758928;183;625030;-74
2021/08/22 11:29:00;;;;;;;6.10;3.50;;;;;;;;;;753722;184;620836;-74
2021/08/22 11:31:27;;;;;;;4.30;3.67;;;;;;;;;;758391;184;634388;-74
2021/08/22 11:33:53;;;;;;;5.63;3.50;;;;;;;;;;758051;182;683565;-74
2021/08/22 11:36:27;;;;;;;5.07;4.10;;;;;;;;;;762252;183;628358;-75
2021/08/22 11:39:07;;;;;;;5.47;4.10;;;;;;;;;;759123;181;748980;-74
2021/08/22 11:41:33;;;;;;;4.50;3.80;;;;;;;;;;758860;183;633647;-75
2021/08/22 11:43:59;;;;;;;4.33;3.53;;;;;;;;;;759303;183;633031;-76
2021/08/22 11:46:25;;;;;;;5.20;3.50;;;;;;;;;;758541;183;650113;-76
2021/08/22 11:48:51;;;;;;;5.90;4.07;;;;;;;;;;761519;182;621823;-75
2021/08/22 11:51:16;;;;;;;6.00;4.03;;;;;;;;;;758229;181;620623;-75
2021/08/22 11:53:42;;;;;;;6.90;4.27;;;;;;;;;;757891;184;618183;-74
2021/08/22 11:56:08;;;;;;;5.80;4.40;;;;;;;;;;760150;184;918705;-75
2021/08/22 11:58:35;;;;;;;9.23;4.67;;;;;;;;;;758465;184;916560;-75
2021/08/22 12:01:18;;;;;;;5.20;4.10;;;;;;;;;;760385;181;626135;-75
2021/08/22 12:03:42;;;;;;;5.80;4.20;;;;;;;;;;758552;184;636987;-75
2021/08/22 12:06:09;;;;;;;8.03;4.20;;;;;;;;;;761058;182;619327;-75
2021/08/22 12:08:34;;;;;;;6.20;4.17;;;;;;;;;;757582;184;919221;-75
2021/08/22 12:11:05;;;;;;;6.17;4.43;;;;;;;;;;759692;184;651292;-76
2021/08/22 12:13:30;;;;;;;6.50;4.00;;;;;;;;;;758700;182;639356;-75
2021/08/22 12:15:56;;;;;;;6.43;4.63;;;;;;;;;;760627;184;793961;-73
2021/08/22 12:18:22;;;;;;;5.27;4.20;;;;;;;;;;757743;182;633786;-75
2021/08/22 12:20:48;;;;;;;6.30;4.87;;;;;;;;;;759175;183;625964;-76
2021/08/22 12:23:14;;;;;;;6.20;4.40;;;;;;;;;;764546;182;626218;-76
2021/08/22 12:25:40;;;;;;;6.47;4.73;;;;;;;;;;759707;183;630759;-77
2021/08/22 12:28:12;;;;;;;6.90;4.20;;;;;;;;;;760252;184;620642;-76
2021/08/22 12:30:38;;;;;;;5.40;3.50;;;;;;;;;;759557;183;626517;-76
2021/08/22 12:33:03;;;;;;;5.30;4.20;;;;;;;;;;762642;183;620179;-75
2021/08/22 12:35:29;;;;;;;7.60;4.43;;;;;;;;;;761511;183;639007;-75
2021/08/22 12:37:55;;;;;;;6.63;4.47;;;;;;;;;;759545;183;638084;-78
2021/08/22 12:40:22;;;;;;;5.77;4.00;;;;;;;;;;760118;183;628055;-76
2021/08/22 12:42:47;;;;;;;6.47;4.40;;;;;;;;;;758154;183;619456;-76
2021/08/22 12:45:14;;;;;;;4.77;3.97;;;;;;;;;;757271;183;628911;-76
2021/08/22 12:47:38;;;;;;;6.40;4.47;;;;;;;;;;762357;183;624528;-75
2021/08/22 12:50:05;;;;;;;6.20;4.43;;;;;;;;;;759399;183;625081;-75
2021/08/22 12:52:30;;;;;;;6.20;4.53;;;;;;;;;;759599;184;619281;-76
2021/08/22 12:54:56;;;;;;;8.60;4.10;;;;;;;;;;758830;181;631988;-74
2021/08/22 12:57:22;;;;;;;5.30;4.17;;;;;;;;;;762976;184;619581;-75
2021/08/22 12:59:48;;;;;;;8.50;4.50;;;;;;;;;;759115;184;647467;-75
2021/08/22 13:02:14;;;;;;;9.43;4.17;;;;;;;;;;758578;184;627771;-74
2021/08/22 13:04:40;;;;;;;6.93;4.77;;;;;;;;;;761778;184;627439;-74
2021/08/22 13:07:05;;;;;;;5.57;4.37;;;;;;;;;;757342;184;631957;-77
2021/08/22 13:09:31;;;;;;;5.70;4.70;;;;;;;;;;757182;184;641137;-75
2021/08/22 13:11:57;;;;;;;6.37;4.53;;;;;;;;;;761601;184;627291;-76
2021/08/22 13:14:23;;;;;;;6.80;4.50;;;;;;;;;;759356;183;632769;-74
2021/08/22 13:16:49;;;;;;;5.87;4.07;;;;;;;;;;758858;184;624477;-75
2021/08/22 13:19:15;;;;;;;7.40;4.50;;;;;;;;;;758779;184;635021;-75
2021/08/22 13:21:40;;;;;;;7.90;5.20;;;;;;;;;;750881;184;624766;-74
2021/08/22 13:24:06;;;;;;;5.50;4.10;;;;;;;;;;755952;184;859563;-74
2021/08/22 13:26:32;;;;;;;5.77;4.20;;;;;;;;;;754518;182;918032;-76
2021/08/22 13:28:58;;;;;;;6.60;4.37;;;;;;;;;;761707;184;937084;-75
2021/08/22 13:31:24;;;;;;;5.83;4.10;;;;;;;;;;760206;183;630298;-75
2021/08/22 13:33:54;;;;;;;6.03;4.03;;;;;;;;;;761562;182;629140;-76
2021/08/22 13:36:15;;;;;;;5.00;4.40;;;;;;;;;;762977;180;629454;-74
2021/08/22 13:38:41;;;;;;;5.27;4.30;;;;;;;;;;759803;183;628263;-75
2021/08/22 13:41:07;;;;;;;5.60;4.80;;;;;;;;;;759320;181;650800;-74
2021/08/22 13:43:34;;;;;;;5.57;5.05;;;;;;;;;;762227;183;628403;-73
2021/08/22 13:45:59;;;;;;;7.30;4.50;;;;;;;;;;757593;183;614972;-73
2021/08/22 13:48:25;;;;;;;7.83;4.50;;;;;;;;;;759412;183;634279;-74
2021/08/22 13:50:51;;;;;;;6.20;4.80;;;;;;;;;;758368;183;632848;-73
2021/08/22 13:53:17;;;;;;;8.93;4.90;;;;;;;;;;763057;183;643445;-75
2021/08/22 13:55:43;;;;;;;8.10;4.67;;;;;;;;;;759534;183;626749;-73
2021/08/22 13:58:09;;;;;;;5.90;3.80;;;;;;;;;;759428;183;630391;-73
2021/08/22 14:00:34;;;;;;;4.72;3.90;;;;;;;;;;754716;181;1834439;-74
2021/08/22 14:03:00;;;;;;;5.20;4.40;;;;;;;;;;759637;183;653041;-74
2021/08/22 14:05:26;;;;;;;6.10;4.60;;;;;;;;;;759407;183;629521;-73
2021/08/22 14:07:52;;;;;;;5.73;4.37;;;;;;;;;;761937;184;628146;-74
2021/08/22 14:10:18;;;;;;;6.43;3.93;;;;;;;;;;758154;184;649505;-75
2021/08/22 14:12:44;;;;;;;5.40;4.40;;;;;;;;;;759013;182;631697;-74
2021/08/22 14:15:10;;;;;;;5.90;4.97;;;;;;;;;;755966;181;914353;-74